createdAt,value
2023-01-17T00:02:12.617Z,97771.19
2023-01-17T00:05:00.804Z,97762.53
2023-01-17T00:07:48.033Z,97762.16
2023-01-17T00:10:21.987Z,97743.81
2023-01-17T00:12:52.722Z,97748.84
2023-01-17T00:15:21.224Z,97731.09
2023-01-17T00:17:49.397Z,97753.66
2023-01-17T00:20:39.353Z,97756.84
2023-01-17T00:23:33.968Z,97754.72
2023-01-17T00:26:04.180Z,97741.75
2023-01-17T00:28:38.231Z,97757.31
2023-01-17T00:31:07.096Z,97743.59
2023-01-17T00:33:34.939Z,97736.69
2023-01-17T00:36:03.156Z,97726.53
2023-01-17T00:38:34.332Z,97737.03
2023-01-17T00:41:04.600Z,97728.84
2023-01-17T00:43:51.899Z,97732.50
2023-01-17T00:46:38.423Z,97730.59
2023-01-17T00:49:43.379Z,97745.56
2023-01-17T00:52:29.087Z,97732.50
2023-01-17T00:55:15.417Z,97733.41
2023-01-17T00:58:01.029Z,97750.56
2023-01-17T01:00:57.136Z,97732.00
2023-01-17T01:03:43.194Z,97751.97
2023-01-17T01:06:31.427Z,97743.47
2023-01-17T01:09:17.634Z,97743.72
2023-01-17T01:12:03.861Z,97734.34
2023-01-17T01:14:50.052Z,97759.38
2023-01-17T01:17:36.092Z,97753.25
2023-01-17T01:20:23.610Z,97748.72
2023-01-17T01:23:09.979Z,97750.72
2023-01-17T01:25:55.699Z,97765.09
2023-01-17T01:28:41.906Z,97731.09
2023-01-17T01:31:27.854Z,97733.06
2023-01-17T01:33:56.919Z,97744.31
2023-01-17T01:36:24.122Z,97744.78
2023-01-17T01:38:51.810Z,97735.88
2023-01-17T01:41:19.070Z,97722.22
2023-01-17T01:43:53.975Z,97729.94
2023-01-17T01:46:30.549Z,97729.94
2023-01-17T01:49:03.420Z,97749.69
2023-01-17T01:51:43.077Z,97744.19
2023-01-17T01:54:21.316Z,97710.63
2023-01-17T01:56:52.829Z,97715.78
2023-01-17T01:59:23.187Z,97703.38
2023-01-17T02:01:53.241Z,97739.25
2023-01-17T02:04:22.539Z,97715.66
2023-01-17T02:06:56.386Z,97710.63
2023-01-17T02:09:24.692Z,97715.28
2023-01-17T02:11:52.029Z,97720.78
2023-01-17T02:14:22.871Z,97708.88
2023-01-17T02:17:25.459Z,97727.25
2023-01-17T02:20:14.910Z,97724.66
2023-01-17T02:23:20.491Z,97733.66
2023-01-17T02:26:06.217Z,97749.91
2023-01-17T02:28:36.552Z,97725.94
2023-01-17T02:31:17.954Z,97738.66
2023-01-17T02:34:15.788Z,97740.66
2023-01-17T02:36:56.011Z,97725.34
2023-01-17T02:39:30.201Z,97722.22
2023-01-17T02:42:03.995Z,97724.66
2023-01-17T02:44:41.015Z,97721.00
2023-01-17T02:47:37.933Z,97716.84
2023-01-17T02:50:16.051Z,97702.56
2023-01-17T02:52:46.656Z,97710.28
2023-01-17T02:55:35.476Z,97702.56
2023-01-17T02:58:32.943Z,97702.56
2023-01-17T03:01:52.106Z,97726.88
2023-01-17T03:04:33.068Z,97717.88
2023-01-17T03:07:10.430Z,97716.09
2023-01-17T03:09:40.868Z,97720.91
2023-01-17T03:12:09.833Z,97725.81
2023-01-17T03:14:39.484Z,97713.09
2023-01-17T03:17:07.583Z,97712.25
2023-01-17T03:19:35.246Z,97728.78
2023-01-17T03:22:02.428Z,97715.69
2023-01-17T03:24:30.397Z,97719.97
2023-01-17T03:26:57.686Z,97719.97
2023-01-17T03:29:25.637Z,97734.59
2023-01-17T03:31:52.913Z,97734.03
2023-01-17T03:34:20.428Z,97718.69
2023-01-17T03:36:47.638Z,97730.63
2023-01-17T03:39:15.268Z,97691.69
2023-01-17T03:41:42.954Z,97766.75
2023-01-17T03:44:10.500Z,97769.44
2023-01-17T03:46:37.779Z,97764.53
2023-01-17T03:49:05.353Z,97778.22
2023-01-17T03:51:32.582Z,97774.84
2023-01-17T03:54:00.569Z,97788.50
2023-01-17T03:56:27.843Z,97808.41
2023-01-17T03:58:58.652Z,97799.28
2023-01-17T04:01:26.253Z,97810.28
2023-01-17T04:03:54.597Z,97830.75
2023-01-17T04:06:21.817Z,97843.59
2023-01-17T04:08:49.360Z,97854.03
2023-01-17T04:11:17.108Z,97858.59
2023-01-17T04:13:44.988Z,97873.78
2023-01-17T04:16:19.698Z,97873.69
2023-01-17T04:18:47.356Z,97882.00
2023-01-17T04:21:14.713Z,97862.91
2023-01-17T04:23:42.670Z,97871.00
2023-01-17T04:26:12.372Z,97867.25
2023-01-17T04:28:39.994Z,97857.41
2023-01-17T04:31:07.548Z,97849.00
2023-01-17T04:33:35.225Z,97865.47
2023-01-17T04:36:02.722Z,97855.56
2023-01-17T04:38:30.279Z,97867.50
2023-01-17T04:40:57.832Z,97865.56
2023-01-17T04:43:25.587Z,97874.91
2023-01-17T04:45:56.853Z,97857.69
2023-01-17T04:48:24.905Z,97867.03
2023-01-17T04:50:52.164Z,97876.28
2023-01-17T04:53:19.979Z,97877.91
2023-01-17T04:55:48.484Z,97889.38
2023-01-17T04:58:16.087Z,97895.94
2023-01-17T05:00:44.112Z,97869.72
2023-01-17T05:03:11.978Z,97897.41
2023-01-17T05:05:39.164Z,97892.41
2023-01-17T05:08:07.761Z,97890.16
2023-01-17T05:10:35.227Z,97896.72
2023-01-17T05:13:03.326Z,97924.91
2023-01-17T05:15:30.581Z,97910.53
2023-01-17T05:17:58.152Z,97898.59
2023-01-17T05:20:26.802Z,97909.13
2023-01-17T05:22:57.691Z,97907.34
2023-01-17T05:25:28.714Z,97911.81
2023-01-17T05:28:02.528Z,97919.28
2023-01-17T05:30:31.752Z,97921.97
2023-01-17T05:33:01.527Z,97923.31
2023-01-17T05:35:32.880Z,97917.47
2023-01-17T05:38:01.593Z,97902.97
2023-01-17T05:40:32.217Z,97903.06
2023-01-17T05:43:01.307Z,97901.09
2023-01-17T05:45:29.904Z,97907.59
2023-01-17T05:47:58.450Z,97908.88
2023-01-17T05:50:32.305Z,97916.84
2023-01-17T05:53:03.703Z,97926.09
2023-01-17T05:55:31.505Z,97942.09
2023-01-17T05:57:59.936Z,97947.38
2023-01-17T06:00:27.920Z,97954.72
2023-01-17T06:02:58.197Z,97948.88
2023-01-17T06:05:27.374Z,97950.19
2023-01-17T06:07:56.725Z,97954.81
2023-01-17T06:10:25.511Z,97935.88
2023-01-17T06:13:08.724Z,97938.06
2023-01-17T06:15:38.424Z,97940.06
2023-01-17T06:18:11.634Z,97921.69
2023-01-17T06:20:40.397Z,97926.19
2023-01-17T06:23:12.112Z,97928.88
2023-01-17T06:25:41.501Z,97924.78
2023-01-17T06:28:09.563Z,97918.13
2023-01-17T06:30:38.341Z,97915.81
2023-01-17T06:33:06.170Z,97930.66
2023-01-17T06:35:33.581Z,97936.84
2023-01-17T06:38:01.234Z,97939.44
2023-01-17T06:40:30.907Z,97942.00
2023-01-17T06:43:02.721Z,97943.25
2023-01-17T06:45:32.696Z,97951.03
2023-01-17T06:48:01.792Z,97959.47
2023-01-17T06:50:29.003Z,97957.97
2023-01-17T06:52:58.670Z,97955.75
2023-01-17T06:55:31.360Z,97955.75
2023-01-17T06:58:03.259Z,97967.53
2023-01-17T07:00:32.207Z,97970.00
2023-01-17T07:03:00.193Z,97996.19
2023-01-17T07:05:28.629Z,97992.00
2023-01-17T07:07:58.080Z,97997.94
2023-01-17T07:10:25.322Z,98024.72
2023-01-17T07:12:58.753Z,98013.75
2023-01-17T07:15:25.946Z,98003.03
2023-01-17T07:17:53.496Z,98009.00
2023-01-17T07:20:21.172Z,98021.63
2023-01-17T07:22:49.110Z,98035.66
2023-01-17T07:25:16.339Z,98016.25
2023-01-17T07:27:43.965Z,98030.88
2023-01-17T07:30:13.180Z,98038.41
2023-01-17T07:32:41.091Z,98041.00
2023-01-17T07:35:08.648Z,98023.78
2023-01-17T07:37:36.131Z,98064.59
2023-01-17T07:40:24.371Z,98071.00
2023-01-17T07:42:52.088Z,98084.47
2023-01-17T07:45:20.556Z,98095.41
2023-01-17T07:47:50.245Z,98118.91
2023-01-17T07:50:19.167Z,98105.34
2023-01-17T07:52:52.672Z,98103.75
2023-01-17T07:55:19.956Z,98056.72
2023-01-17T07:57:50.876Z,98117.97
2023-01-17T08:00:23.378Z,98104.94
2023-01-17T08:02:55.239Z,98109.28
2023-01-17T08:05:23.066Z,98120.38
2023-01-17T08:07:50.591Z,98132.50
2023-01-17T08:10:18.280Z,98133.81
2023-01-17T08:12:47.520Z,98134.31
2023-01-17T08:15:16.890Z,98127.19
2023-01-17T08:17:54.680Z,98140.94
2023-01-17T08:20:22.187Z,98120.00
2023-01-17T08:22:53.620Z,98103.41
2023-01-17T08:25:21.352Z,98085.38
2023-01-17T08:27:48.902Z,98101.56
2023-01-17T08:30:16.511Z,98110.97
2023-01-17T08:32:44.168Z,98113.53
2023-01-17T08:35:11.371Z,98113.16
2023-01-17T08:37:39.283Z,98107.34
2023-01-17T08:40:11.254Z,98100.28
2023-01-17T08:43:01.209Z,98086.97
2023-01-17T08:45:29.346Z,98044.78
2023-01-17T08:47:59.235Z,98044.00
2023-01-17T08:50:27.133Z,98044.03
2023-01-17T08:53:01.080Z,98043.31
2023-01-17T08:55:28.809Z,98037.75
2023-01-17T08:57:57.584Z,98035.50
2023-01-17T09:00:25.274Z,98056.66
2023-01-17T09:02:53.979Z,98032.09
2023-01-17T09:05:21.553Z,98033.41
2023-01-17T09:07:49.139Z,98032.16
2023-01-17T09:10:16.896Z,98043.03
2023-01-17T09:12:44.572Z,98023.16
2023-01-17T09:15:14.790Z,98051.72
2023-01-17T09:17:42.326Z,98045.81
2023-01-17T09:20:10.663Z,98040.41
2023-01-17T09:22:39.273Z,98050.38
2023-01-17T09:25:07.347Z,98027.59
2023-01-17T09:27:34.900Z,98041.50
2023-01-17T09:30:02.491Z,98051.13
2023-01-17T09:32:30.140Z,98083.13
2023-01-17T09:35:01.080Z,98060.03
2023-01-17T09:37:28.866Z,98060.19
2023-01-17T09:39:56.212Z,98049.84
2023-01-17T09:42:34.601Z,98038.38
2023-01-17T09:45:02.621Z,98041.22
2023-01-17T09:47:30.379Z,98038.38
2023-01-17T09:50:03.482Z,98030.22
2023-01-17T09:52:32.670Z,98021.75
2023-01-17T09:55:00.179Z,98024.47
2023-01-17T09:57:58.794Z,98030.72
2023-01-17T10:00:40.997Z,98009.97
2023-01-17T10:03:30.453Z,98020.72
2023-01-17T10:06:22.806Z,98016.72
2023-01-17T10:09:24.457Z,98033.13
2023-01-17T10:12:01.125Z,98036.06
2023-01-17T10:14:50.100Z,98031.94
2023-01-17T10:17:32.212Z,98026.56
2023-01-17T10:20:24.609Z,98026.09
2023-01-17T10:23:18.435Z,97999.81
2023-01-17T10:25:52.545Z,97991.00
2023-01-17T10:28:24.632Z,97988.38
2023-01-17T10:30:58.243Z,97967.78
2023-01-17T10:33:29.432Z,97959.00
2023-01-17T10:36:11.187Z,97966.81
2023-01-17T10:38:41.824Z,97962.69
2023-01-17T10:41:18.550Z,97966.59
2023-01-17T10:44:06.741Z,97942.50
2023-01-17T10:46:51.993Z,97948.09
2023-01-17T10:49:21.399Z,97938.34
2023-01-17T10:52:12.571Z,97929.44
2023-01-17T10:54:50.107Z,97948.44
2023-01-17T10:57:26.087Z,97949.44
2023-01-17T10:59:58.073Z,97957.91
2023-01-17T11:02:36.974Z,97954.91
2023-01-17T11:05:20.643Z,97943.25
2023-01-17T11:07:58.452Z,97935.38
2023-01-17T11:10:39.954Z,97917.16
2023-01-17T11:13:23.395Z,97914.75
2023-01-17T11:15:54.093Z,97906.22
2023-01-17T11:18:22.494Z,97892.19
2023-01-17T11:20:50.182Z,97882.72
2023-01-17T11:23:30.999Z,97895.56
2023-01-17T11:26:04.925Z,97867.66
2023-01-17T11:28:35.244Z,97871.63
2023-01-17T11:31:08.072Z,97867.69
2023-01-17T11:33:45.563Z,97860.25
2023-01-17T11:36:33.327Z,97865.66
2023-01-17T11:39:27.640Z,97859.34
2023-01-17T11:41:55.333Z,97846.22
2023-01-17T11:44:30.983Z,97848.31
2023-01-17T11:47:24.867Z,97841.69
2023-01-17T11:49:52.532Z,97851.75
2023-01-17T11:52:26.377Z,97849.16
2023-01-17T11:54:55.499Z,97832.88
2023-01-17T11:57:40.931Z,97834.06
2023-01-17T12:00:25.053Z,97830.13
2023-01-17T12:03:01.745Z,97819.53
2023-01-17T12:05:53.740Z,97800.41
2023-01-17T12:08:29.264Z,97797.88
2023-01-17T12:11:05.986Z,97778.72
2023-01-17T12:14:00.760Z,97782.56
2023-01-17T12:16:43.580Z,97771.94
2023-01-17T12:19:39.060Z,97772.28
2023-01-17T12:22:23.450Z,97757.81
2023-01-17T12:25:08.379Z,97764.84
2023-01-17T12:27:51.087Z,97758.38
2023-01-17T12:30:18.310Z,97741.91
2023-01-17T12:33:28.053Z,97743.19
2023-01-17T12:36:05.838Z,97743.69
2023-01-17T12:38:36.514Z,97739.34
2023-01-17T12:41:14.277Z,97726.34
2023-01-17T12:43:44.380Z,97718.09
2023-01-17T12:46:31.262Z,97712.53
2023-01-17T12:49:37.697Z,97719.63
2023-01-17T12:52:33.924Z,97709.59
2023-01-17T12:55:17.769Z,97701.72
2023-01-17T12:57:53.162Z,97697.56
2023-01-17T13:00:23.624Z,97685.88
2023-01-17T13:03:08.270Z,97672.47
2023-01-17T13:05:41.969Z,97666.00
2023-01-17T13:08:09.264Z,97665.19
2023-01-17T13:10:47.936Z,97669.75
2023-01-17T13:13:25.696Z,97668.69
2023-01-17T13:15:58.206Z,97666.50
2023-01-17T13:18:29.921Z,97662.34
2023-01-17T13:21:06.951Z,97652.00
2023-01-17T13:23:47.950Z,97637.00
2023-01-17T13:26:24.945Z,97629.72
2023-01-17T13:29:29.262Z,97632.28
2023-01-17T13:32:34.773Z,97625.38
2023-01-17T13:35:42.077Z,97606.50
2023-01-17T13:38:23.433Z,97610.41
2023-01-17T13:40:54.989Z,97594.31
2023-01-17T13:43:26.363Z,97595.72
2023-01-17T13:45:56.683Z,97584.13
2023-01-17T13:48:26.991Z,97598.59
2023-01-17T13:51:11.070Z,97592.13
2023-01-17T13:53:38.666Z,97586.16
2023-01-17T13:56:29.003Z,97572.13
2023-01-17T13:59:02.955Z,97565.03
2023-01-17T14:01:34.921Z,97545.00
2023-01-17T14:04:12.711Z,97545.88
2023-01-17T14:06:47.081Z,97532.31
2023-01-17T14:09:33.611Z,97521.91
2023-01-17T14:12:15.185Z,97525.34
2023-01-17T14:14:46.246Z,97530.81
2023-01-17T14:17:16.682Z,97520.03
2023-01-17T14:19:48.675Z,97530.81
2023-01-17T14:22:18.763Z,97524.66
2023-01-17T14:25:03.370Z,97516.75
2023-01-17T14:27:34.830Z,97507.63
2023-01-17T14:30:16.484Z,97493.88
2023-01-17T14:33:01.755Z,97494.41
2023-01-17T14:35:38.652Z,97471.38
2023-01-17T14:38:27.150Z,97480.34
2023-01-17T14:41:23.846Z,97461.59
2023-01-17T14:43:54.018Z,97475.72
2023-01-17T14:46:23.800Z,97467.81
2023-01-17T14:48:59.016Z,97468.94
2023-01-17T14:51:26.634Z,97464.25
2023-01-17T14:53:56.649Z,97458.16
2023-01-17T14:56:27.435Z,97449.69
2023-01-17T14:59:17.249Z,97442.19
2023-01-17T15:02:06.234Z,97429.22
2023-01-17T15:04:39.788Z,97437.59
2023-01-17T15:07:13.276Z,97431.31
2023-01-17T15:09:43.751Z,97432.91
2023-01-17T15:12:16.212Z,97430.97
2023-01-17T15:14:46.373Z,97437.22
2023-01-17T15:17:26.873Z,97430.78
2023-01-17T15:20:17.028Z,97422.25
2023-01-17T15:22:45.329Z,97424.38
2023-01-17T15:25:14.281Z,97413.41
2023-01-17T15:27:43.110Z,97423.25
2023-01-17T15:30:15.367Z,97413.47
2023-01-17T15:32:48.010Z,97396.69
2023-01-17T15:35:19.314Z,97388.28
2023-01-17T15:37:53.908Z,97376.75
2023-01-17T15:40:24.281Z,97375.63
2023-01-17T15:42:59.427Z,97381.28
2023-01-17T15:45:30.799Z,97381.88
2023-01-17T15:48:18.743Z,97390.50
2023-01-17T15:50:46.451Z,97382.94
2023-01-17T15:53:30.083Z,97364.50
2023-01-17T15:55:57.792Z,97372.59
2023-01-17T15:58:28.666Z,97366.94
2023-01-17T16:00:57.308Z,97373.72
2023-01-17T16:03:30.294Z,97354.03
2023-01-17T16:06:00.736Z,97360.63
2023-01-17T16:08:33.035Z,97352.75
2023-01-17T16:11:06.487Z,97351.81
2023-01-17T16:13:38.748Z,97347.84
2023-01-17T16:16:15.647Z,97356.69
2023-01-17T16:18:44.213Z,97346.16
2023-01-17T16:21:19.884Z,97363.78
2023-01-17T16:23:47.800Z,97357.50
2023-01-17T16:26:15.449Z,97357.78
2023-01-17T16:28:45.781Z,97355.16
2023-01-17T16:31:13.281Z,97346.19
2023-01-17T16:33:42.290Z,97341.00
2023-01-17T16:36:15.264Z,97342.84
2023-01-17T16:38:44.721Z,97339.81
2023-01-17T16:41:12.073Z,97336.03
2023-01-17T16:43:39.844Z,97332.56
2023-01-17T16:46:07.550Z,97335.13
2023-01-17T16:48:37.437Z,97330.38
2023-01-17T16:51:08.326Z,97324.94
2023-01-17T16:53:37.374Z,97303.25
2023-01-17T16:56:14.652Z,97308.03
2023-01-17T16:58:42.507Z,97314.44
2023-01-17T17:01:12.051Z,97312.50
2023-01-17T17:03:39.816Z,97308.34
2023-01-17T17:06:07.445Z,97298.97
2023-01-17T17:08:36.169Z,97289.06
2023-01-17T17:11:14.650Z,97277.88
2023-01-17T17:13:46.944Z,97284.63
2023-01-17T17:16:24.113Z,97262.97
2023-01-17T17:18:59.961Z,97278.50
2023-01-17T17:21:28.772Z,97270.09
2023-01-17T17:23:59.148Z,97264.81
2023-01-17T17:26:31.096Z,97264.34
2023-01-17T17:28:58.965Z,97252.44
2023-01-17T17:31:27.119Z,97247.19
2023-01-17T17:33:58.990Z,97236.94
2023-01-17T17:36:26.304Z,97238.97
2023-01-17T17:38:55.406Z,97235.00
2023-01-17T17:41:31.725Z,97233.22
2023-01-17T17:44:05.675Z,97220.13
2023-01-17T17:46:35.221Z,97243.44
2023-01-17T17:49:22.830Z,97242.06
2023-01-17T17:51:50.194Z,97237.00
2023-01-17T17:54:18.541Z,97230.38
2023-01-17T17:56:49.230Z,97233.22
2023-01-17T17:59:20.500Z,97225.69
2023-01-17T18:02:10.792Z,97208.22
2023-01-17T18:04:39.070Z,97205.06
2023-01-17T18:07:09.070Z,97193.22
2023-01-17T18:09:36.604Z,97189.47
2023-01-17T18:12:04.139Z,97175.50
2023-01-17T18:14:32.838Z,97183.13
2023-01-17T18:17:00.275Z,97187.50
2023-01-17T18:19:27.953Z,97187.03
2023-01-17T18:21:55.408Z,97158.75
2023-01-17T18:24:25.017Z,97158.84
2023-01-17T18:26:58.056Z,97152.69
2023-01-17T18:29:27.294Z,97149.03
2023-01-17T18:31:55.576Z,97170.97
2023-01-17T18:34:27.180Z,97174.19
2023-01-17T18:36:54.621Z,97177.66
2023-01-17T18:39:25.363Z,97177.63
2023-01-17T18:41:53.264Z,97182.44
2023-01-17T18:44:22.310Z,97190.03
2023-01-17T18:46:59.713Z,97198.69
2023-01-17T18:49:27.408Z,97184.88
2023-01-17T18:51:54.712Z,97192.97
2023-01-17T18:54:22.321Z,97195.97
2023-01-17T18:56:51.253Z,97189.72
2023-01-17T18:59:19.801Z,97189.50
2023-01-17T19:01:47.692Z,97193.56
2023-01-17T19:04:18.161Z,97172.41
2023-01-17T19:06:48.647Z,97175.16
2023-01-17T19:09:17.297Z,97186.78
2023-01-17T19:11:46.238Z,97186.50
2023-01-17T19:14:15.934Z,97179.16
2023-01-17T19:16:43.964Z,97187.00
2023-01-17T19:19:14.792Z,97188.63
2023-01-17T19:21:43.057Z,97185.91
2023-01-17T19:24:13.476Z,97187.25
2023-01-17T19:26:42.202Z,97191.03
2023-01-17T19:29:10.515Z,97190.47
2023-01-17T19:31:44.465Z,97176.41
2023-01-17T19:34:16.245Z,97174.75
2023-01-17T19:36:43.741Z,97175.84
2023-01-17T19:39:11.416Z,97180.97
2023-01-17T19:41:45.650Z,97175.06
2023-01-17T19:44:14.637Z,97181.59
2023-01-17T19:46:42.613Z,97172.88
2023-01-17T19:49:10.547Z,97172.00
2023-01-17T19:51:39.749Z,97174.69
2023-01-17T19:54:08.620Z,97167.13
2023-01-17T19:56:36.319Z,97169.84
2023-01-17T19:59:06.292Z,97158.47
2023-01-17T20:01:35.606Z,97153.56
2023-01-17T20:04:05.817Z,97143.25
2023-01-17T20:06:37.016Z,97174.09
2023-01-17T20:09:06.049Z,97176.03
2023-01-17T20:11:33.548Z,97183.84
2023-01-17T20:14:01.477Z,97183.84
2023-01-17T20:16:32.321Z,97192.53
2023-01-17T20:19:00.354Z,97196.91
2023-01-17T20:21:30.160Z,97201.47
2023-01-17T20:24:03.195Z,97198.53
2023-01-17T20:26:37.540Z,97212.03
2023-01-17T20:29:12.057Z,97200.13
2023-01-17T20:31:41.446Z,97214.75
2023-01-17T20:34:11.697Z,97218.59
2023-01-17T20:36:42.226Z,97235.38
2023-01-17T20:39:12.915Z,97235.38
2023-01-17T20:41:42.949Z,97231.59
2023-01-17T20:44:15.356Z,97223.75
2023-01-17T20:46:42.964Z,97227.78
2023-01-17T20:49:15.233Z,97237.00
2023-01-17T20:51:44.552Z,97238.94
2023-01-17T20:54:14.622Z,97242.97
2023-01-17T20:56:43.014Z,97241.91
2023-01-17T20:59:28.379Z,97257.88
2023-01-17T21:01:55.537Z,97258.69
2023-01-17T21:04:26.209Z,97254.09
2023-01-17T21:06:53.600Z,97257.06
2023-01-17T21:09:22.149Z,97253.28
2023-01-17T21:11:49.663Z,97270.63
2023-01-17T21:14:17.249Z,97248.69
2023-01-17T21:16:44.792Z,97240.84
2023-01-17T21:19:15.109Z,97262.50
2023-01-17T21:21:43.182Z,97270.34
2023-01-17T21:24:18.674Z,97276.56
2023-01-17T21:26:47.110Z,97273.06
2023-01-17T21:29:16.292Z,97268.44
2023-01-17T21:31:45.417Z,97269.28
2023-01-17T21:34:13.901Z,97265.22
2023-01-17T21:36:42.479Z,97266.59
2023-01-17T21:39:16.880Z,97278.75
2023-01-17T21:41:48.175Z,97250.34
2023-01-17T21:44:19.870Z,97267.94
2023-01-17T21:46:47.994Z,97277.69
2023-01-17T21:49:15.771Z,97281.22
2023-01-17T21:51:52.813Z,97276.91
2023-01-17T21:54:44.571Z,97285.00
2023-01-17T21:57:35.058Z,97283.94
2023-01-17T22:00:25.983Z,97286.09
2023-01-17T22:02:56.995Z,97278.28
2023-01-17T22:05:27.768Z,97271.22
2023-01-17T22:08:38.836Z,97291.81
2023-01-17T22:11:11.007Z,97271.78
2023-01-17T22:13:40.995Z,97288.03
2023-01-17T22:16:12.403Z,97305.06
2023-01-17T22:18:40.914Z,97297.75
2023-01-17T22:21:14.951Z,97298.31
2023-01-17T22:23:53.313Z,97305.34
2023-01-17T22:26:22.883Z,97303.72
2023-01-17T22:28:50.524Z,97300.50
2023-01-17T22:31:23.643Z,97295.63
2023-01-17T22:34:00.753Z,97300.50
2023-01-17T22:36:32.055Z,97293.22
2023-01-17T22:39:00.621Z,97308.91
2023-01-17T22:41:34.843Z,97307.00
2023-01-17T22:44:05.624Z,97300.50
2023-01-17T22:46:35.960Z,97308.91
2023-01-17T22:49:03.285Z,97312.13
2023-01-17T22:51:30.789Z,97312.41
2023-01-17T22:54:00.303Z,97318.38
2023-01-17T22:56:30.994Z,97293.22
2023-01-17T22:59:00.932Z,97323.25
2023-01-17T23:01:31.052Z,97320.53
2023-01-17T23:04:01.815Z,97335.69
2023-01-17T23:06:32.681Z,97319.44
2023-01-17T23:09:18.949Z,97335.69
2023-01-17T23:11:53.723Z,97336.53
2023-01-17T23:14:24.967Z,97344.09
2023-01-17T23:17:19.902Z,97334.06
2023-01-17T23:19:53.159Z,97334.88
2023-01-17T23:22:23.926Z,97337.84
2023-01-17T23:24:52.428Z,97342.47
2023-01-17T23:27:55.497Z,97345.13
2023-01-17T23:30:35.621Z,97343.78
2023-01-17T23:33:06.085Z,97316.44
2023-01-17T23:35:41.251Z,97330.22
2023-01-17T23:38:34.776Z,97327.53
2023-01-17T23:41:23.767Z,97341.34
2023-01-17T23:43:59.124Z,97348.97
2023-01-17T23:46:30.417Z,97344.63
2023-01-17T23:48:58.105Z,97344.63
2023-01-17T23:51:25.365Z,97346.50
2023-01-17T23:53:57.506Z,97353.31
2023-01-17T23:56:25.074Z,97339.50
2023-01-17T23:58:52.606Z,97343.56
